Time;durP1;ratioP1;P1;durP2;ratioP2;P2;SDS_P1;SDS_P2;PMS_P1;PMS_P2;Temp;Humidity;BMP_temperature;BMP_pressure;BME280_temperature;BME280_humidity;BME280_pressure;Samples;Min_cycle;Max_cycle;Signal;HPM_P1;HPM_P2
2021/07/01 00:01:50;;;;;;;4.75;3.50;;;;;;;14.43;94.82;100324.22;5024530;28;20033;-75
2021/07/01 00:04:16;;;;;;;4.27;3.50;;;;;;;14.43;95.83;100326.88;5031728;28;20117;-75
2021/07/01 00:06:41;;;;;;;6.43;3.60;;;;;;;14.46;94.73;100326.50;5031448;28;20044;-75
2021/07/01 00:09:07;;;;;;;6.20;4.10;;;;;;;14.47;94.74;100322.00;5031392;28;20033;-75
2021/07/01 00:11:32;;;;;;;4.43;3.58;;;;;;;14.45;94.28;100323.00;5030460;28;20211;-75
2021/07/01 00:13:57;;;;;;;5.72;3.20;;;;;;;14.48;94.13;100319.16;5036285;28;20048;-75
2021/07/01 00:16:23;;;;;;;4.47;3.63;;;;;;;14.49;94.70;100325.31;5034714;28;20052;-75
2021/07/01 00:18:49;;;;;;;4.57;3.40;;;;;;;14.46;94.71;100321.16;5030770;28;20406;-75
2021/07/01 00:21:17;;;;;;;4.07;3.17;;;;;;;14.48;94.89;100332.47;5030328;28;20091;-76
2021/07/01 00:23:42;;;;;;;5.28;3.83;;;;;;;14.47;95.19;100335.28;5022381;28;20030;-75
2021/07/01 00:26:07;;;;;;;4.35;3.50;;;;;;;14.50;94.39;100326.97;5029685;28;20037;-75
2021/07/01 00:28:33;;;;;;;4.10;2.95;;;;;;;14.49;95.40;100335.94;5030422;28;20656;-76
2021/07/01 00:30:58;;;;;;;4.82;3.10;;;;;;;14.49;95.29;100336.78;5046778;28;20103;-75
2021/07/01 00:33:23;;;;;;;4.68;3.38;;;;;;;14.50;94.54;100335.78;5036871;28;20452;-75
2021/07/01 00:35:49;;;;;;;3.90;3.17;;;;;;;14.53;94.17;100339.91;5030766;28;20030;-76
2021/07/01 00:38:14;;;;;;;5.05;3.70;;;;;;;14.51;94.37;100339.25;5030005;28;20065;-75
2021/07/01 00:40:39;;;;;;;5.28;3.88;;;;;;;14.52;93.53;100338.25;5029994;28;20112;-75
2021/07/01 00:43:04;;;;;;;4.30;3.22;;;;;;;14.53;94.55;100339.91;5029915;28;20068;-75
2021/07/01 00:45:30;;;;;;;4.95;3.92;;;;;;;14.49;94.87;100327.97;5029977;28;20046;-76
2021/07/01 00:47:55;;;;;;;4.78;3.53;;;;;;;14.49;94.90;100330.63;5034245;28;20033;-75
2021/07/01 00:50:22;;;;;;;4.32;3.30;;;;;;;14.49;95.16;100334.13;5028868;28;20029;-75
2021/07/01 00:52:47;;;;;;;4.05;3.03;;;;;;;14.49;95.45;100335.94;5030285;28;20106;-76
2021/07/01 00:55:13;;;;;;;4.75;3.17;;;;;;;14.51;95.51;100333.94;5021974;28;20026;-75
2021/07/01 00:57:39;;;;;;;3.95;3.15;;;;;;;14.55;95.31;100335.25;5029605;28;20026;-76
2021/07/01 01:02:51;;;;;;;3.15;2.70;;;;;;;14.64;95.76;100332.31;5023450;28;20034;-75
2021/07/01 01:05:16;;;;;;;5.65;3.45;;;;;;;14.61;94.81;100338.03;5029800;28;20120;-75
2021/07/01 01:07:42;;;;;;;4.03;3.20;;;;;;;14.57;94.03;100336.72;5029448;28;20124;-75
2021/07/01 01:10:08;;;;;;;3.65;2.85;;;;;;;14.48;94.14;100336.97;5028126;28;20037;-76
2021/07/01 01:12:33;;;;;;;2.53;2.30;;;;;;;14.45;94.76;100331.00;5029525;28;20086;-76
2021/07/01 01:14:59;;;;;;;3.45;2.22;;;;;;;14.45;94.44;100330.19;5032189;28;20034;-75
2021/07/01 01:17:24;;;;;;;4.53;2.47;;;;;;;14.46;93.36;100331.81;5045984;28;20026;-75
2021/07/01 01:19:49;;;;;;;3.72;2.67;;;;;;;14.41;93.60;100339.53;5024793;28;20034;-75
2021/07/01 01:22:15;;;;;;;3.25;2.70;;;;;;;14.38;94.93;100339.88;5026987;28;20155;-76
2021/07/01 01:24:40;;;;;;;4.60;2.55;;;;;;;14.40;94.25;100341.34;5029095;28;20625;-75
2021/07/01 01:27:05;;;;;;;2.85;2.45;;;;;;;14.42;94.72;100347.31;5028144;28;20090;-76
2021/07/01 01:29:30;;;;;;;3.25;2.47;;;;;;;14.42;95.34;100346.50;5029386;28;20195;-75
2021/07/01 01:31:56;;;;;;;3.40;2.70;;;;;;;14.40;94.30;100338.69;5037655;28;20132;-75
2021/07/01 01:34:21;;;;;;;3.30;2.60;;;;;;;14.39;94.71;100339.69;5047215;28;20068;-75
2021/07/01 01:36:47;;;;;;;2.70;2.10;;;;;;;14.42;94.16;100342.00;5028643;28;20030;-76
2021/07/01 01:39:12;;;;;;;3.10;2.50;;;;;;;14.41;95.12;100344.84;5028915;28;20076;-76
2021/07/01 01:41:37;;;;;;;3.92;3.15;;;;;;;14.42;95.09;100338.53;5028908;28;20038;-75
2021/07/01 01:44:03;;;;;;;3.50;2.85;;;;;;;14.42;95.13;100342.00;5028577;28;20116;-75
2021/07/01 01:46:36;;;;;;;3.53;2.97;;;;;;;14.37;94.93;100338.22;5029121;28;20040;-76
2021/07/01 01:49:02;;;;;;;4.15;3.10;;;;;;;14.39;93.81;100337.03;5030154;28;20037;-76
2021/07/01 01:51:28;;;;;;;4.72;3.03;;;;;;;14.34;93.59;100339.41;5028929;28;20556;-75
2021/07/01 01:53:53;;;;;;;4.32;3.17;;;;;;;14.30;93.86;100337.28;5028872;28;20041;-76
2021/07/01 01:56:19;;;;;;;3.53;2.80;;;;;;;14.26;94.38;100336.84;5027588;28;20037;-76
2021/07/01 01:58:46;;;;;;;3.72;3.17;;;;;;;14.26;93.63;100339.50;5028898;28;20445;-75
2021/07/01 02:01:11;;;;;;;5.00;2.95;;;;;;;14.28;93.48;100345.47;5029107;28;20116;-76
2021/07/01 02:03:36;;;;;;;5.70;3.10;;;;;;;14.25;94.62;100345.81;5029055;28;20112;-75
2021/07/01 02:06:02;;;;;;;4.38;3.63;;;;;;;14.28;94.86;100349.94;5022793;28;20132;-75
2021/07/01 02:08:27;;;;;;;4.05;2.92;;;;;;;14.31;95.39;100354.91;5026744;28;20041;-76
2021/07/01 02:10:52;;;;;;;4.50;3.53;;;;;;;14.30;95.75;100350.59;5028937;28;20538;-75
2021/07/01 02:13:18;;;;;;;3.30;2.67;;;;;;;14.34;95.57;100349.22;5034850;28;20568;-76
2021/07/01 02:15:43;;;;;;;3.53;2.97;;;;;;;14.34;94.94;100344.72;5032788;28;20495;-75
2021/07/01 02:18:10;;;;;;;5.43;3.38;;;;;;;14.37;94.12;100352.38;5044749;28;20043;-75
2021/07/01 02:20:35;;;;;;;4.28;3.20;;;;;;;14.34;94.83;100346.56;5028443;28;20042;-75
2021/07/01 02:23:00;;;;;;;4.22;3.60;;;;;;;14.35;94.16;100348.22;5028978;28;20052;-76
2021/07/01 02:25:26;;;;;;;5.05;4.00;;;;;;;14.40;92.51;100348.53;5028850;28;20044;-75
2021/07/01 02:27:51;;;;;;;4.25;3.75;;;;;;;14.33;93.77;100347.59;5028896;28;20022;-76
2021/07/01 02:30:17;;;;;;;4.22;3.38;;;;;;;14.36;92.94;100347.22;5028245;28;20044;-75
2021/07/01 02:32:43;;;;;;;7.88;4.15;;;;;;;14.34;92.85;100339.41;5020510;28;20036;-75
2021/07/01 02:35:10;;;;;;;4.75;3.40;;;;;;;14.34;93.10;100334.09;5027130;28;20033;-75
2021/07/01 02:37:37;;;;;;;4.75;2.83;;;;;;;14.39;93.54;100341.53;5027206;28;20038;-76
2021/07/01 02:40:05;;;;;;;4.35;3.17;;;;;;;14.39;95.00;100345.00;5027217;28;20037;-76
2021/07/01 02:42:30;;;;;;;4.75;3.38;;;;;;;14.39;94.69;100341.53;5028577;28;20037;-76
2021/07/01 02:44:56;;;;;;;3.45;2.92;;;;;;;14.36;95.16;100347.22;5029065;28;20029;-76
2021/07/01 02:47:21;;;;;;;5.55;3.60;;;;;;;14.26;94.88;100344.00;5032983;28;20529;-76
2021/07/01 02:49:46;;;;;;;4.90;3.17;;;;;;;14.25;95.03;100343.16;5031136;28;20291;-76
2021/07/01 02:52:12;;;;;;;4.75;3.55;;;;;;;14.23;95.66;100340.69;5030885;28;20053;-75
2021/07/01 02:54:37;;;;;;;4.38;3.47;;;;;;;14.22;94.60;100344.34;5032503;28;20044;-76
2021/07/01 02:57:03;;;;;;;5.07;3.60;;;;;;;14.21;95.19;100353.34;5032238;28;20528;-76
2021/07/01 02:59:28;;;;;;;3.90;3.20;;;;;;;14.22;95.29;100347.00;5032250;28;20038;-76
2021/07/01 03:01:53;;;;;;;4.68;3.47;;;;;;;14.25;96.24;100356.44;5032197;28;20078;-76
2021/07/01 03:04:19;;;;;;;4.15;3.30;;;;;;;14.29;95.38;100352.44;5031465;28;20041;-76
2021/07/01 03:06:44;;;;;;;6.97;5.18;;;;;;;14.31;93.70;100349.59;5031686;28;20075;-76
2021/07/01 03:09:11;;;;;;;6.20;3.78;;;;;;;14.28;94.59;100355.25;5030922;28;20034;-76
2021/07/01 03:11:37;;;;;;;4.47;3.97;;;;;;;14.30;95.23;100358.56;5031869;28;20056;-76
2021/07/01 03:14:03;;;;;;;5.18;4.25;;;;;;;14.29;95.75;100363.06;5036795;28;20391;-76
2021/07/01 03:16:29;;;;;;;7.38;5.25;;;;;;;14.29;94.33;100357.75;5036431;28;20045;-76
2021/07/01 03:18:54;;;;;;;7.88;6.20;;;;;;;14.22;94.76;100354.97;5033686;28;20084;-76
2021/07/01 03:21:21;;;;;;;5.90;4.65;;;;;;;14.24;94.64;100355.63;5022202;28;20045;-76
2021/07/01 03:23:47;;;;;;;8.48;5.43;;;;;;;14.26;94.88;100359.97;5030948;28;20590;-76
2021/07/01 03:26:14;;;;;;;6.18;5.07;;;;;;;14.28;94.79;100357.91;5031251;28;20460;-76
2021/07/01 03:28:40;;;;;;;7.80;5.35;;;;;;;14.23;95.26;100359.31;5031837;28;20402;-76
2021/07/01 03:31:06;;;;;;;8.05;5.35;;;;;;;14.27;94.43;100358.94;5026861;28;20038;-76
2021/07/01 03:33:33;;;;;;;8.02;5.30;;;;;;;14.26;94.60;100355.47;5039515;28;20033;-76
2021/07/01 03:35:59;;;;;;;7.05;5.40;;;;;;;14.29;94.15;100357.75;5031629;28;20053;-76
2021/07/01 03:38:24;;;;;;;6.07;4.55;;;;;;;14.29;94.44;100363.06;5031277;28;20038;-75
2021/07/01 03:40:50;;;;;;;6.50;5.10;;;;;;;14.31;93.94;100360.25;5031184;28;20037;-75
2021/07/01 03:43:16;;;;;;;6.55;5.70;;;;;;;14.28;94.70;100357.91;5030438;28;20033;-76
2021/07/01 03:45:42;;;;;;;7.78;5.95;;;;;;;14.31;94.12;100361.06;5031766;28;20176;-77
2021/07/01 03:48:07;;;;;;;9.80;6.55;;;;;;;14.26;95.67;100358.13;5036261;28;20652;-76
2021/07/01 03:50:32;;;;;;;6.50;5.20;;;;;;;14.29;95.69;100356.94;5025404;28;20039;-76
2021/07/01 03:52:58;;;;;;;5.57;4.57;;;;;;;14.34;94.64;100358.03;5025670;28;20491;-76
2021/07/01 03:55:23;;;;;;;6.53;4.85;;;;;;;14.33;95.40;100361.72;5021918;28;20022;-76
2021/07/01 03:57:48;;;;;;;5.55;4.57;;;;;;;14.36;94.72;100364.00;5031536;28;20044;-75
2021/07/01 04:00:14;;;;;;;5.97;4.60;;;;;;;14.38;94.05;100363.84;5035441;28;20127;-75
2021/07/01 04:02:40;;;;;;;6.47;5.22;;;;;;;14.33;94.80;100368.88;5031275;28;20099;-75
2021/07/01 04:05:06;;;;;;;7.45;5.65;;;;;;;14.32;94.16;100369.84;5031313;28;20029;-76
2021/07/01 04:07:32;;;;;;;6.57;4.90;;;;;;;14.31;94.68;100370.88;5028274;28;20037;-76
2021/07/01 04:10:05;;;;;;;7.25;5.00;;;;;;;14.29;94.15;100372.88;5025473;28;20091;-77
2021/07/01 04:12:30;;;;;;;6.68;4.80;;;;;;;14.18;94.92;100374.97;5034669;28;20489;-75
2021/07/01 04:14:56;;;;;;;5.53;4.70;;;;;;;14.20;94.69;100380.91;5032998;28;20037;-76
2021/07/01 04:17:21;;;;;;;6.78;5.20;;;;;;;14.15;95.39;100383.28;5028517;28;20095;-75
2021/07/01 04:19:46;;;;;;;8.02;5.00;;;;;;;14.08;94.48;100382.34;5021640;28;20041;-76
2021/07/01 04:22:11;;;;;;;6.60;5.10;;;;;;;14.12;95.50;100383.66;5020725;28;20047;-76
2021/07/01 04:24:37;;;;;;;5.97;4.68;;;;;;;14.14;95.42;100386.97;5028032;28;20033;-76
2021/07/01 04:27:02;;;;;;;4.78;3.95;;;;;;;14.15;95.25;100387.78;5045715;28;20056;-76
2021/07/01 04:29:28;;;;;;;6.55;4.70;;;;;;;14.11;95.01;100394.47;5030045;28;20034;-76
2021/07/01 04:31:53;;;;;;;6.10;4.72;;;;;;;14.12;94.88;100401.44;5021666;28;20079;-76
2021/07/01 04:34:18;;;;;;;6.28;4.57;;;;;;;14.11;95.22;100391.81;5036413;28;20032;-76
2021/07/01 04:36:44;;;;;;;6.43;5.57;;;;;;;14.16;95.54;100398.25;5029116;28;20063;-76
2021/07/01 04:39:10;;;;;;;8.65;6.60;;;;;;;14.19;95.14;100394.41;5024990;28;20053;-76
2021/07/01 04:41:35;;;;;;;8.65;7.40;;;;;;;14.25;94.44;100391.03;5028512;28;20069;-76
2021/07/01 04:44:01;;;;;;;9.30;6.45;;;;;;;14.31;94.12;100395.63;5028740;28;20068;-77
2021/07/01 04:46:26;;;;;;;9.63;7.45;;;;;;;14.37;94.14;100386.94;5028805;28;20037;-76
2021/07/01 04:48:53;;;;;;;12.70;8.48;;;;;;;14.45;93.21;100394.03;5030342;28;20037;-76
2021/07/01 04:51:18;;;;;;;10.18;8.25;;;;;;;14.42;93.59;100394.41;5045296;28;20053;-76
2021/07/01 04:53:44;;;;;;;12.80;9.63;;;;;;;14.42;92.48;100381.91;5024725;28;20038;-75
2021/07/01 04:56:09;;;;;;;13.40;9.85;;;;;;;14.44;92.67;100390.53;5022167;28;20036;-76
2021/07/01 04:58:35;;;;;;;14.43;10.45;;;;;;;14.48;92.19;100390.19;5028979;28;20421;-76
2021/07/01 05:01:00;;;;;;;13.82;10.90;;;;;;;14.45;92.03;100389.53;5028910;28;20071;-75
2021/07/01 05:03:26;;;;;;;12.63;10.80;;;;;;;14.39;93.51;100392.06;5027617;28;20110;-76
2021/07/01 05:05:51;;;;;;;14.02;10.82;;;;;;;14.40;93.14;100391.09;5023895;28;20046;-76
2021/07/01 05:08:17;;;;;;;12.50;10.05;;;;;;;14.41;93.33;100393.53;5023981;28;20030;-75
2021/07/01 05:10:42;;;;;;;11.68;9.55;;;;;;;14.48;92.49;100393.66;5020615;28;20490;-76
2021/07/01 05:13:08;;;;;;;12.45;9.65;;;;;;;14.45;92.60;100394.03;5022018;28;20038;-75
2021/07/01 05:15:33;;;;;;;14.38;10.65;;;;;;;14.45;92.29;100396.69;5032107;28;20034;-76
2021/07/01 05:18:00;;;;;;;14.10;11.15;;;;;;;14.44;91.76;100398.53;5030792;28;20518;-76
2021/07/01 05:20:25;;;;;;;12.05;10.13;;;;;;;14.42;92.28;100399.72;5027404;28;20076;-76
2021/07/01 05:22:51;;;;;;;11.82;9.98;;;;;;;14.36;93.28;100393.25;5025667;28;20510;-77
2021/07/01 05:25:17;;;;;;;13.73;9.15;;;;;;;14.41;92.46;100398.03;5026188;28;20033;-75
2021/07/01 05:27:42;;;;;;;11.23;9.00;;;;;;;14.43;92.45;100402.19;5023151;28;20403;-76
2021/07/01 05:30:08;;;;;;;11.80;9.68;;;;;;;14.40;92.80;100402.53;5029172;28;20044;-75
2021/07/01 05:32:33;;;;;;;11.23;8.38;;;;;;;14.44;92.56;100406.50;5030251;28;20383;-76
2021/07/01 05:34:59;;;;;;;11.23;8.52;;;;;;;14.48;92.21;100406.13;5024108;28;20103;-76
2021/07/01 05:37:24;;;;;;;11.25;8.45;;;;;;;14.49;92.28;100410.44;5029839;28;20036;-75
2021/07/01 05:39:49;;;;;;;9.45;7.60;;;;;;;14.44;92.71;100408.31;5030056;28;20486;-75
2021/07/01 05:42:15;;;;;;;11.07;7.78;;;;;;;14.49;92.24;100405.97;5023697;28;20033;-75
2021/07/01 05:44:40;;;;;;;9.82;8.00;;;;;;;14.47;92.96;100412.44;5027455;28;20103;-76
2021/07/01 05:47:05;;;;;;;9.15;7.97;;;;;;;14.45;93.42;100412.66;5027018;28;20098;-76
2021/07/01 05:49:31;;;;;;;8.75;6.88;;;;;;;14.43;93.79;100415.47;5029063;28;20045;-76
2021/07/01 05:52:00;;;;;;;8.95;6.97;;;;;;;14.46;93.25;100414.28;5028672;28;20113;-75
2021/07/01 05:54:41;;;;;;;7.93;6.82;;;;;;;14.48;93.66;100411.47;5027905;28;20037;-76
2021/07/01 05:57:06;;;;;;;;;;;;;;;14.52;93.95;100412.75;5027979;28;20495;-76
2021/07/01 05:59:32;;;;;;;9.37;7.07;;;;;;;14.56;93.63;100414.91;5029151;28;19913;-76
2021/07/01 06:01:58;;;;;;;7.88;6.60;;;;;;;14.61;93.26;100414.34;5029402;28;20034;-76
2021/07/01 06:04:24;;;;;;;9.00;7.25;;;;;;;14.60;94.16;100418.84;5028681;28;20033;-75
2021/07/01 06:06:52;;;;;;;8.82;6.80;;;;;;;14.65;93.97;100416.47;5029176;28;20049;-76
2021/07/01 06:09:24;;;;;;;6.00;5.10;;;;;;;14.71;94.47;100419.44;5027364;28;20033;-76
2021/07/01 06:11:54;;;;;;;8.98;6.00;;;;;;;14.76;94.07;100417.06;5029837;28;20034;-76
2021/07/01 06:14:20;;;;;;;7.55;6.28;;;;;;;14.79;93.46;100417.50;5029329;28;20389;-76
2021/07/01 06:16:46;;;;;;;5.65;4.60;;;;;;;14.81;94.55;100420.00;5033996;28;20045;-76
2021/07/01 06:19:11;;;;;;;7.97;5.25;;;;;;;14.83;94.01;100429.44;5023220;28;20227;-76
2021/07/01 06:21:37;;;;;;;5.47;4.50;;;;;;;14.88;94.45;100428.09;5029275;28;20052;-75
2021/07/01 06:24:03;;;;;;;7.13;4.90;;;;;;;14.91;93.52;100427.72;5032905;28;20038;-76
2021/07/01 06:26:29;;;;;;;5.70;5.05;;;;;;;14.92;94.15;100424.88;5023026;28;20056;-76
2021/07/01 06:28:56;;;;;;;6.20;5.15;;;;;;;14.96;93.54;100433.31;5027324;28;20037;-76
2021/07/01 06:31:22;;;;;;;7.65;6.28;;;;;;;14.89;94.13;100432.38;5028499;28;20053;-75
2021/07/01 06:33:48;;;;;;;7.82;6.30;;;;;;;14.90;94.12;100437.53;5035742;28;20041;-76
2021/07/01 06:36:14;;;;;;;7.28;5.40;;;;;;;14.94;93.38;100444.13;5032378;28;20029;-76
2021/07/01 06:38:45;;;;;;;8.15;5.55;;;;;;;14.91;93.46;100441.84;5031577;28;20468;-76
2021/07/01 06:41:12;;;;;;;7.05;4.95;;;;;;;14.88;94.36;100442.22;5032297;28;20030;-76
2021/07/01 06:43:38;;;;;;;6.63;5.00;;;;;;;14.86;95.53;100444.22;5032778;28;20056;-77
2021/07/01 06:46:06;;;;;;;4.63;3.85;;;;;;;14.90;95.32;100442.00;5031308;28;20030;-76
2021/07/01 06:48:31;;;;;;;5.90;4.43;;;;;;;14.89;95.66;100438.53;5035516;28;20052;-76
2021/07/01 06:50:58;;;;;;;6.28;4.90;;;;;;;14.93;94.42;100444.34;5032136;28;20052;-76
2021/07/01 06:53:25;;;;;;;6.75;4.30;;;;;;;14.96;94.11;100444.78;5030992;28;20033;-76
2021/07/01 06:55:51;;;;;;;6.97;4.22;;;;;;;14.96;95.32;100443.97;5032398;28;20061;-76
2021/07/01 06:58:17;;;;;;;4.30;3.38;;;;;;;15.01;95.72;100454.88;5031743;28;20513;-76
2021/07/01 07:00:43;;;;;;;3.88;3.00;;;;;;;15.07;93.97;100447.00;5031588;28;20041;-76
2021/07/01 07:03:13;;;;;;;8.20;5.43;;;;;;;15.08;95.23;100447.81;5031064;28;20125;-76
2021/07/01 07:05:39;;;;;;;5.88;4.30;;;;;;;15.14;94.46;100452.44;5039936;28;20025;-76
2021/07/01 07:08:05;;;;;;;7.78;4.78;;;;;;;15.19;94.28;100457.19;5031363;28;20063;-76
2021/07/01 07:10:31;;;;;;;6.00;4.22;;;;;;;15.21;94.73;100455.19;5038816;28;20038;-76
2021/07/01 07:12:56;;;;;;;5.25;3.92;;;;;;;15.29;93.89;100450.56;5052828;28;20498;-76
2021/07/01 07:15:28;;;;;;;6.30;4.18;;;;;;;15.39;93.82;100455.63;5031870;28;20033;-76
2021/07/01 07:18:00;;;;;;;7.13;4.50;;;;;;;15.48;92.70;100461.69;5032503;28;20390;-76
2021/07/01 07:20:27;;;;;;;5.13;3.83;;;;;;;15.54;93.35;100465.44;5030947;28;20042;-76
2021/07/01 07:22:55;;;;;;;7.80;4.72;;;;;;;15.60;91.68;100464.72;5024187;28;20117;-76
2021/07/01 07:25:21;;;;;;;7.57;4.38;;;;;;;15.56;92.27;100471.41;5031386;28;20033;-76
2021/07/01 07:28:03;;;;;;;8.02;4.03;;;;;;;15.56;90.89;100476.75;5031832;28;20502;-75
2021/07/01 07:30:29;;;;;;;4.88;3.78;;;;;;;15.55;90.66;100465.25;5030332;28;20525;-76
2021/07/01 07:32:55;;;;;;;4.68;3.67;;;;;;;15.60;90.40;100468.19;5031164;28;20087;-76
2021/07/01 07:35:24;;;;;;;5.63;3.38;;;;;;;15.56;90.96;100469.56;5023135;28;20030;-76
2021/07/01 07:37:49;;;;;;;4.38;3.30;;;;;;;15.63;92.44;100465.16;5031852;28;20036;-76
2021/07/01 07:40:15;;;;;;;4.43;3.25;;;;;;;15.68;91.38;100469.91;5030880;28;20041;-76
2021/07/01 07:42:45;;;;;;;3.58;2.65;;;;;;;15.72;91.30;100473.91;5031870;28;20099;-75
2021/07/01 07:45:10;;;;;;;3.97;3.10;;;;;;;15.60;89.45;100475.38;5039227;28;20444;-76
2021/07/01 07:47:36;;;;;;;3.28;2.55;;;;;;;15.65;90.37;100475.63;5040496;28;20033;-76
2021/07/01 07:50:01;;;;;;;3.10;2.25;;;;;;;15.70;91.28;100474.09;5029767;28;20061;-76
2021/07/01 07:52:28;;;;;;;2.80;2.40;;;;;;;15.75;92.15;100475.38;5031238;28;20061;-76
2021/07/01 07:54:54;;;;;;;3.92;2.60;;;;;;;15.78;90.30;100475.84;5036834;28;20717;-76
2021/07/01 07:57:27;;;;;;;3.30;2.08;;;;;;;15.84;91.40;100469.75;5026901;28;20120;-76
2021/07/01 07:59:56;;;;;;;2.95;2.10;;;;;;;15.96;90.16;100463.94;5030292;28;20033;-76
2021/07/01 08:02:49;;;;;;;3.10;2.10;;;;;;;15.97;89.91;100470.91;5031221;28;20041;-76
2021/07/01 08:05:20;;;;;;;2.85;1.80;;;;;;;16.09;89.53;100466.75;5030070;28;20045;-76
2021/07/01 08:07:46;;;;;;;2.42;1.50;;;;;;;16.17;89.70;100471.94;5031644;28;20457;-76
2021/07/01 08:10:14;;;;;;;3.30;2.20;;;;;;;16.14;89.29;100462.47;5030227;28;20037;-76
2021/07/01 08:12:42;;;;;;;2.63;1.90;;;;;;;16.12;88.54;100461.84;5031192;28;20560;-76
2021/07/01 08:15:13;;;;;;;3.65;1.90;;;;;;;16.16;88.57;100459.63;5027560;28;20021;-76
2021/07/01 08:17:42;;;;;;;4.00;2.00;;;;;;;16.07;90.07;100464.25;5030660;28;20034;-76
2021/07/01 08:20:14;;;;;;;3.22;1.90;;;;;;;16.01;88.27;100465.00;5030612;28;20276;-76
2021/07/01 08:22:43;;;;;;;1.95;1.50;;;;;;;15.85;89.32;100460.75;5027256;28;20026;-76
2021/07/01 08:25:10;;;;;;;2.05;1.58;;;;;;;15.75;89.49;100465.53;5030985;28;20045;-76
2021/07/01 08:27:36;;;;;;;2.00;1.30;;;;;;;15.65;89.13;100462.31;5029545;28;20068;-76
2021/07/01 08:30:04;;;;;;;3.78;1.63;;;;;;;15.60;89.12;100467.38;5023983;28;20048;-75
2021/07/01 08:32:31;;;;;;;2.28;1.60;;;;;;;15.54;90.22;100466.28;5028561;28;20029;-76
2021/07/01 08:34:59;;;;;;;2.63;1.77;;;;;;;15.48;90.52;100465.16;5030795;28;20224;-76
2021/07/01 08:37:25;;;;;;;2.53;1.73;;;;;;;15.46;90.77;100463.72;5030723;28;20100;-76
2021/07/01 08:39:52;;;;;;;3.95;1.63;;;;;;;15.39;90.93;100458.28;5025615;28;20034;-76
2021/07/01 08:42:21;;;;;;;3.20;1.80;;;;;;;15.28;90.19;100467.59;5025496;28;20060;-75
2021/07/01 08:44:55;;;;;;;2.22;1.40;;;;;;;15.40;91.22;100473.28;5030030;28;20405;-76
2021/07/01 08:47:25;;;;;;;2.17;1.52;;;;;;;15.58;90.56;100475.53;5024165;28;20425;-76
2021/07/01 08:49:55;;;;;;;3.80;1.77;;;;;;;15.64;90.86;100474.81;5030240;28;20039;-76
2021/07/01 08:52:28;;;;;;;4.18;1.70;;;;;;;15.72;89.72;100473.91;5028356;28;20124;-76
2021/07/01 08:55:02;;;;;;;2.75;2.10;;;;;;;15.88;88.48;100471.03;5025864;28;20053;-76
2021/07/01 08:57:31;;;;;;;2.08;1.63;;;;;;;16.10;89.71;100473.72;5030858;28;20041;-76
2021/07/01 09:00:08;;;;;;;1.90;1.60;;;;;;;16.29;88.42;100473.09;5028998;28;20029;-76
2021/07/01 09:02:36;;;;;;;3.00;2.05;;;;;;;16.42;87.97;100472.41;5030332;28;20027;-76
2021/07/01 09:05:07;;;;;;;3.15;1.90;;;;;;;16.49;85.64;100469.78;5027210;28;20037;-76
2021/07/01 09:07:33;;;;;;;;;;;;;;;16.62;83.93;100469.91;5030534;28;20038;-76
2021/07/01 09:10:01;;;;;;;2.28;1.67;;;;;;;16.71;84.24;100460.75;5029568;28;19913;-76
2021/07/01 09:12:28;;;;;;;2.67;1.40;;;;;;;16.98;84.20;100460.94;5025709;28;20060;-76
2021/07/01 09:14:58;;;;;;;3.25;1.60;;;;;;;17.16;83.60;100471.97;5028676;28;20069;-76
2021/07/01 09:17:29;;;;;;;2.67;1.50;;;;;;;17.28;84.06;100479.41;5029963;28;20188;-76
2021/07/01 09:19:59;;;;;;;2.13;1.50;;;;;;;17.49;80.23;100473.97;5029777;28;20044;-76
2021/07/01 09:22:26;;;;;;;1.95;1.33;;;;;;;17.77;77.27;100478.44;5028173;28;20091;-76
2021/07/01 09:24:53;;;;;;;1.85;1.20;;;;;;;17.89;78.88;100479.53;5029752;28;20033;-76
2021/07/01 09:27:19;;;;;;;2.53;1.30;;;;;;;17.94;77.72;100476.25;5024545;28;20041;-76
2021/07/01 09:29:46;;;;;;;2.00;1.65;;;;;;;17.85;77.01;100483.63;5020596;28;20044;-76
2021/07/01 09:32:13;;;;;;;2.10;1.70;;;;;;;17.91;77.61;100482.00;5028117;28;20030;-76
2021/07/01 09:34:41;;;;;;;2.25;1.50;;;;;;;17.96;80.04;100485.72;5028446;28;20112;-76
2021/07/01 09:37:06;;;;;;;2.75;1.60;;;;;;;18.08;78.52;100477.13;5041512;28;20489;-76
2021/07/01 09:39:33;;;;;;;2.22;1.55;;;;;;;18.03;79.29;100475.84;5034944;28;20029;-76
2021/07/01 09:42:02;;;;;;;1.75;1.20;;;;;;;18.12;76.47;100487.22;5019607;28;20111;-76
2021/07/01 09:44:34;;;;;;;1.60;1.30;;;;;;;18.07;77.58;100488.81;5027472;28;20521;-76
2021/07/01 09:47:03;;;;;;;1.55;1.10;;;;;;;18.08;74.71;100488.63;5024126;28;20498;-76
2021/07/01 09:49:32;;;;;;;1.60;1.10;;;;;;;18.07;74.27;100486.16;5043605;28;20025;-75
2021/07/01 09:52:02;;;;;;;2.13;1.20;;;;;;;17.92;73.60;100492.50;5026154;28;20038;-76
2021/07/01 09:54:31;;;;;;;1.55;1.00;;;;;;;18.07;75.93;100488.81;5043308;28;20461;-76
2021/07/01 09:57:00;;;;;;;2.70;1.10;;;;;;;18.04;75.37;100493.59;5047536;28;20056;-76
2021/07/01 09:59:33;;;;;;;1.77;1.20;;;;;;;18.00;76.22;100502.22;5032900;28;20030;-75
2021/07/01 10:02:15;;;;;;;2.65;1.30;;;;;;;18.05;74.60;100502.44;5032935;28;20455;-76
2021/07/01 10:04:45;;;;;;;2.00;1.40;;;;;;;18.01;75.04;100498.50;5022755;28;20045;-76
2021/07/01 10:07:11;;;;;;;1.52;1.23;;;;;;;17.99;73.53;100489.84;5028594;28;20037;-76
2021/07/01 10:09:36;;;;;;;3.13;1.38;;;;;;;17.92;72.46;100487.13;5032990;28;20075;-75
2021/07/01 10:12:12;;;;;;;3.70;1.42;;;;;;;17.99;73.82;100489.84;5030976;28;20029;-76
2021/07/01 10:14:39;;;;;;;1.70;1.30;;;;;;;18.03;73.89;100485.75;5032828;28;20037;-75
2021/07/01 10:17:13;;;;;;;2.42;1.40;;;;;;;18.12;74.30;100483.72;5032689;28;20044;-76
2021/07/01 10:19:39;;;;;;;2.35;1.73;;;;;;;17.97;75.63;100491.88;5031007;28;20038;-76
2021/07/01 10:22:06;;;;;;;1.90;1.25;;;;;;;17.93;75.93;100488.00;5032466;28;20041;-76
2021/07/01 10:24:35;;;;;;;2.03;1.60;;;;;;;17.77;73.12;100489.94;5030654;28;20029;-76
2021/07/01 10:27:03;;;;;;;3.08;1.73;;;;;;;17.53;73.97;100485.94;5031002;28;20124;-75
2021/07/01 10:29:39;;;;;;;2.10;1.50;;;;;;;17.30;76.36;100486.22;5040492;28;20166;-76
2021/07/01 10:32:07;;;;;;;2.28;1.65;;;;;;;17.25;77.92;100488.66;5033945;28;20452;-75
2021/07/01 10:34:48;;;;;;;2.38;1.70;;;;;;;17.28;77.98;100496.31;5032592;28;20112;-76
2021/07/01 10:37:19;;;;;;;2.27;1.50;;;;;;;17.47;76.02;100493.91;5032229;28;20064;-75
2021/07/01 10:39:50;;;;;;;2.88;1.60;;;;;;;17.78;74.73;100488.94;5024072;28;20265;-75
2021/07/01 10:42:16;;;;;;;3.47;1.63;;;;;;;17.93;70.87;100480.78;5030029;28;20163;-75
2021/07/01 10:44:42;;;;;;;2.15;1.60;;;;;;;17.96;73.16;100480.38;5032392;28;20040;-75
2021/07/01 10:47:28;;;;;;;1.80;1.33;;;;;;;17.83;77.04;100491.03;5023348;28;20041;-76
2021/07/01 10:49:54;;;;;;;2.28;1.65;;;;;;;17.66;75.00;100481.66;5030375;28;20034;-76
2021/07/01 10:52:32;;;;;;;2.17;1.48;;;;;;;17.13;75.59;100490.22;5029929;28;20034;-76
2021/07/01 10:54:59;;;;;;;2.28;1.55;;;;;;;16.66;77.33;100494.34;5026243;28;20037;-76
2021/07/01 10:57:29;;;;;;;2.35;1.20;;;;;;;16.30;81.12;100490.78;5031090;28;20029;-76
2021/07/01 10:59:57;;;;;;;1.70;1.27;;;;;;;16.16;80.52;100494.31;5038240;28;20320;-76
2021/07/01 11:02:26;;;;;;;2.33;1.02;;;;;;;16.08;80.52;100494.41;5023737;28;20778;-75
2021/07/01 11:04:54;;;;;;;2.00;0.90;;;;;;;16.05;81.37;100495.63;5032534;28;20037;-75
2021/07/01 11:07:20;;;;;;;2.03;0.93;;;;;;;16.08;80.84;100500.56;5036401;28;20042;-75
2021/07/01 11:09:48;;;;;;;1.65;0.88;;;;;;;15.97;82.21;100511.75;5031890;28;20037;-75
2021/07/01 11:12:14;;;;;;;1.45;0.90;;;;;;;16.02;81.33;100513.84;5031525;28;20115;-75
2021/07/01 11:14:45;;;;;;;1.60;1.10;;;;;;;16.01;81.83;100507.66;5028089;28;20096;-75
2021/07/01 11:17:11;;;;;;;1.77;1.10;;;;;;;16.09;80.19;100509.44;5027824;28;20121;-75
2021/07/01 11:19:42;;;;;;;1.50;1.00;;;;;;;16.10;79.83;100505.72;5031517;28;20116;-75
2021/07/01 11:22:08;;;;;;;3.53;1.60;;;;;;;16.11;81.13;100518.88;5029278;28;20040;-75
2021/07/01 11:24:39;;;;;;;2.28;1.25;;;;;;;15.98;82.39;100523.25;5031973;28;20438;-75
2021/07/01 11:27:04;;;;;;;1.83;1.10;;;;;;;15.89;82.41;100519.84;5023189;28;20068;-76